sensor_id;sensor_type;location;lat;lon;timestamp;temperature;humidity
18444;DHT22;9350;53.176;8.194;2022-07-29T00:00:45;16.70;99.90
18444;DHT22;9350;53.176;8.194;2022-07-29T00:03:11;16.70;99.90
18444;DHT22;9350;53.176;8.194;2022-07-29T00:05:38;16.60;99.90
18444;DHT22;9350;53.176;8.194;2022-07-29T00:08:05;16.60;99.90
18444;DHT22;9350;53.176;8.194;2022-07-29T00:10:34;16.60;99.90
18444;DHT22;9350;53.176;8.194;2022-07-29T00:13:00;16.60;99.90
18444;DHT22;9350;53.176;8.194;2022-07-29T00:15:28;16.60;99.90
18444;DHT22;9350;53.176;8.194;2022-07-29T00:17:55;16.60;99.90
18444;DHT22;9350;53.176;8.194;2022-07-29T00:20:21;16.60;99.90
18444;DHT22;9350;53.176;8.194;2022-07-29T00:22:48;16.60;99.90
18444;DHT22;9350;53.176;8.194;2022-07-29T00:25:15;16.60;99.90
18444;DHT22;9350;53.176;8.194;2022-07-29T00:27:43;16.60;99.90
18444;DHT22;9350;53.176;8.194;2022-07-29T00:30:11;16.50;99.90
18444;DHT22;9350;53.176;8.194;2022-07-29T00:32:38;16.50;99.90
18444;DHT22;9350;53.176;8.194;2022-07-29T00:35:06;16.50;99.90
18444;DHT22;9350;53.176;8.194;2022-07-29T00:37:50;16.40;99.90
18444;DHT22;9350;53.176;8.194;2022-07-29T00:40:17;16.40;99.90
18444;DHT22;9350;53.176;8.194;2022-07-29T00:42:47;16.30;99.90
18444;DHT22;9350;53.176;8.194;2022-07-29T00:45:14;16.40;99.90
18444;DHT22;9350;53.176;8.194;2022-07-29T00:47:41;16.40;99.90
18444;DHT22;9350;53.176;8.194;2022-07-29T00:50:09;16.40;99.90
18444;DHT22;9350;53.176;8.194;2022-07-29T00:52:38;16.40;99.90
18444;DHT22;9350;53.176;8.194;2022-07-29T00:55:06;16.40;99.90
18444;DHT22;9350;53.176;8.194;2022-07-29T00:57:35;16.40;99.90
18444;DHT22;9350;53.176;8.194;2022-07-29T01:00:04;16.40;99.90
18444;DHT22;9350;53.176;8.194;2022-07-29T01:02:31;16.40;99.90
18444;DHT22;9350;53.176;8.194;2022-07-29T01:04:58;16.40;99.90
18444;DHT22;9350;53.176;8.194;2022-07-29T01:07:26;16.40;99.90
18444;DHT22;9350;53.176;8.194;2022-07-29T01:09:53;16.30;99.90
18444;DHT22;9350;53.176;8.194;2022-07-29T01:12:22;16.30;99.90
18444;DHT22;9350;53.176;8.194;2022-07-29T01:14:50;16.30;99.90
18444;DHT22;9350;53.176;8.194;2022-07-29T01:17:22;16.30;99.90
18444;DHT22;9350;53.176;8.194;2022-07-29T01:19:56;16.30;99.90
18444;DHT22;9350;53.176;8.194;2022-07-29T01:22:46;16.30;99.90
18444;DHT22;9350;53.176;8.194;2022-07-29T01:25:34;16.30;99.90
18444;DHT22;9350;53.176;8.194;2022-07-29T01:30:53;16.30;99.90
18444;DHT22;9350;53.176;8.194;2022-07-29T01:33:22;16.30;99.90
18444;DHT22;9350;53.176;8.194;2022-07-29T01:36:11;16.20;99.90
18444;DHT22;9350;53.176;8.194;2022-07-29T01:38:42;16.10;99.90
18444;DHT22;9350;53.176;8.194;2022-07-29T01:41:10;16.20;99.90
18444;DHT22;9350;53.176;8.194;2022-07-29T01:43:44;16.10;99.90
18444;DHT22;9350;53.176;8.194;2022-07-29T01:46:15;16.10;99.90
18444;DHT22;9350;53.176;8.194;2022-07-29T01:48:47;16.20;99.90
18444;DHT22;9350;53.176;8.194;2022-07-29T01:51:16;16.20;99.90
18444;DHT22;9350;53.176;8.194;2022-07-29T01:53:47;16.20;99.90
18444;DHT22;9350;53.176;8.194;2022-07-29T01:56:18;16.20;99.90
18444;DHT22;9350;53.176;8.194;2022-07-29T01:58:46;16.20;99.90
18444;DHT22;9350;53.176;8.194;2022-07-29T02:01:16;16.10;99.90
18444;DHT22;9350;53.176;8.194;2022-07-29T02:03:45;16.20;99.90
18444;DHT22;9350;53.176;8.194;2022-07-29T02:06:15;16.20;99.90
18444;DHT22;9350;53.176;8.194;2022-07-29T02:08:43;16.20;99.90
18444;DHT22;9350;53.176;8.194;2022-07-29T02:11:10;16.10;99.90
18444;DHT22;9350;53.176;8.194;2022-07-29T02:13:38;16.20;99.90
18444;DHT22;9350;53.176;8.194;2022-07-29T02:16:06;16.20;99.90
18444;DHT22;9350;53.176;8.194;2022-07-29T02:18:37;16.10;99.90
18444;DHT22;9350;53.176;8.194;2022-07-29T02:21:05;16.10;99.90
18444;DHT22;9350;53.176;8.194;2022-07-29T02:23:33;16.00;99.90
18444;DHT22;9350;53.176;8.194;2022-07-29T02:26:02;16.10;99.90
18444;DHT22;9350;53.176;8.194;2022-07-29T02:28:30;16.10;99.90
18444;DHT22;9350;53.176;8.194;2022-07-29T02:31:01;16.10;99.90
18444;DHT22;9350;53.176;8.194;2022-07-29T02:33:30;16.20;99.90
18444;DHT22;9350;53.176;8.194;2022-07-29T02:35:59;16.10;99.90
18444;DHT22;9350;53.176;8.194;2022-07-29T02:38:28;16.00;99.90
18444;DHT22;9350;53.176;8.194;2022-07-29T02:41:17;16.10;99.90
18444;DHT22;9350;53.176;8.194;2022-07-29T02:43:46;16.10;99.90
18444;DHT22;9350;53.176;8.194;2022-07-29T02:46:17;16.00;99.90
18444;DHT22;9350;53.176;8.194;2022-07-29T02:48:50;16.00;99.90
18444;DHT22;9350;53.176;8.194;2022-07-29T02:51:23;16.00;99.90
18444;DHT22;9350;53.176;8.194;2022-07-29T02:53:53;16.10;99.90
18444;DHT22;9350;53.176;8.194;2022-07-29T02:56:25;16.00;99.90
18444;DHT22;9350;53.176;8.194;2022-07-29T02:58:55;16.10;99.90
18444;DHT22;9350;53.176;8.194;2022-07-29T03:01:25;16.10;99.90
18444;DHT22;9350;53.176;8.194;2022-07-29T03:03:54;16.10;99.90
18444;DHT22;9350;53.176;8.194;2022-07-29T03:06:25;16.00;99.90
18444;DHT22;9350;53.176;8.194;2022-07-29T03:08:54;16.00;99.90
18444;DHT22;9350;53.176;8.194;2022-07-29T03:11:22;15.90;99.90
18444;DHT22;9350;53.176;8.194;2022-07-29T03:13:49;16.00;99.90
18444;DHT22;9350;53.176;8.194;2022-07-29T03:16:18;15.90;99.90
18444;DHT22;9350;53.176;8.194;2022-07-29T03:18:46;15.90;99.90
18444;DHT22;9350;53.176;8.194;2022-07-29T03:21:13;15.90;99.90
18444;DHT22;9350;53.176;8.194;2022-07-29T03:23:45;15.90;99.90
18444;DHT22;9350;53.176;8.194;2022-07-29T03:26:12;15.90;99.90
18444;DHT22;9350;53.176;8.194;2022-07-29T03:28:39;15.90;99.90
18444;DHT22;9350;53.176;8.194;2022-07-29T03:31:06;15.90;99.90
18444;DHT22;9350;53.176;8.194;2022-07-29T03:33:32;15.90;99.90
18444;DHT22;9350;53.176;8.194;2022-07-29T03:35:59;15.90;99.90
18444;DHT22;9350;53.176;8.194;2022-07-29T03:38:29;15.90;99.90
18444;DHT22;9350;53.176;8.194;2022-07-29T03:41:01;15.80;99.90
18444;DHT22;9350;53.176;8.194;2022-07-29T03:43:31;15.90;99.90
18444;DHT22;9350;53.176;8.194;2022-07-29T03:45:59;15.90;99.90
18444;DHT22;9350;53.176;8.194;2022-07-29T03:48:27;15.90;99.90
18444;DHT22;9350;53.176;8.194;2022-07-29T03:50:56;15.90;99.90
18444;DHT22;9350;53.176;8.194;2022-07-29T03:53:23;15.90;99.90
18444;DHT22;9350;53.176;8.194;2022-07-29T03:55:52;15.80;99.90
18444;DHT22;9350;53.176;8.194;2022-07-29T03:58:22;15.80;99.90
18444;DHT22;9350;53.176;8.194;2022-07-29T04:00:49;15.90;99.90
18444;DHT22;9350;53.176;8.194;2022-07-29T04:03:16;15.80;99.90
18444;DHT22;9350;53.176;8.194;2022-07-29T04:05:43;15.90;99.90
18444;DHT22;9350;53.176;8.194;2022-07-29T04:08:10;15.90;99.90
18444;DHT22;9350;53.176;8.194;2022-07-29T04:10:37;15.90;99.90
18444;DHT22;9350;53.176;8.194;2022-07-29T04:13:04;15.90;99.90
18444;DHT22;9350;53.176;8.194;2022-07-29T04:15:32;15.80;99.90
18444;DHT22;9350;53.176;8.194;2022-07-29T04:17:59;15.80;99.90
18444;DHT22;9350;53.176;8.194;2022-07-29T04:20:26;15.90;99.90
18444;DHT22;9350;53.176;8.194;2022-07-29T04:22:53;15.90;99.90
18444;DHT22;9350;53.176;8.194;2022-07-29T04:25:19;16.00;99.90
18444;DHT22;9350;53.176;8.194;2022-07-29T04:27:46;15.90;99.90
18444;DHT22;9350;53.176;8.194;2022-07-29T04:30:28;15.90;99.90
18444;DHT22;9350;53.176;8.194;2022-07-29T04:32:57;15.90;99.90
18444;DHT22;9350;53.176;8.194;2022-07-29T04:35:24;15.80;99.90
18444;DHT22;9350;53.176;8.194;2022-07-29T04:37:51;15.90;99.90
18444;DHT22;9350;53.176;8.194;2022-07-29T04:40:17;15.80;99.90
18444;DHT22;9350;53.176;8.194;2022-07-29T04:42:44;15.80;99.90
18444;DHT22;9350;53.176;8.194;2022-07-29T04:45:11;15.90;99.90
18444;DHT22;9350;53.176;8.194;2022-07-29T04:47:37;15.90;99.90
18444;DHT22;9350;53.176;8.194;2022-07-29T04:50:07;15.90;99.90
18444;DHT22;9350;53.176;8.194;2022-07-29T04:52:34;15.90;99.90
18444;DHT22;9350;53.176;8.194;2022-07-29T04:55:01;15.90;99.90
18444;DHT22;9350;53.176;8.194;2022-07-29T04:57:27;15.90;99.90
18444;DHT22;9350;53.176;8.194;2022-07-29T04:59:54;15.90;99.90
18444;DHT22;9350;53.176;8.194;2022-07-29T05:02:21;15.90;99.90
18444;DHT22;9350;53.176;8.194;2022-07-29T05:04:48;15.90;99.90
18444;DHT22;9350;53.176;8.194;2022-07-29T05:07:16;15.90;99.90
18444;DHT22;9350;53.176;8.194;2022-07-29T05:09:42;15.90;99.90
18444;DHT22;9350;53.176;8.194;2022-07-29T05:12:09;15.90;99.90
18444;DHT22;9350;53.176;8.194;2022-07-29T05:14:36;15.90;99.90
18444;DHT22;9350;53.176;8.194;2022-07-29T05:17:03;15.80;99.90
18444;DHT22;9350;53.176;8.194;2022-07-29T05:19:29;15.90;99.90
18444;DHT22;9350;53.176;8.194;2022-07-29T05:21:57;15.90;99.90
18444;DHT22;9350;53.176;8.194;2022-07-29T05:24:26;15.90;99.90
18444;DHT22;9350;53.176;8.194;2022-07-29T05:26:53;15.90;99.90
18444;DHT22;9350;53.176;8.194;2022-07-29T05:29:20;15.90;99.90
18444;DHT22;9350;53.176;8.194;2022-07-29T05:31:46;15.90;99.90
18444;DHT22;9350;53.176;8.194;2022-07-29T05:34:13;16.00;99.90
18444;DHT22;9350;53.176;8.194;2022-07-29T05:36:40;16.00;99.90
18444;DHT22;9350;53.176;8.194;2022-07-29T05:39:07;16.00;99.90
18444;DHT22;9350;53.176;8.194;2022-07-29T05:41:35;16.00;99.90
18444;DHT22;9350;53.176;8.194;2022-07-29T05:44:01;16.00;99.90
18444;DHT22;9350;53.176;8.194;2022-07-29T05:46:28;16.00;99.90
18444;DHT22;9350;53.176;8.194;2022-07-29T05:48:55;16.10;99.90
18444;DHT22;9350;53.176;8.194;2022-07-29T05:51:21;16.10;99.90
18444;DHT22;9350;53.176;8.194;2022-07-29T05:53:48;16.00;99.90
18444;DHT22;9350;53.176;8.194;2022-07-29T05:56:15;16.10;99.90
18444;DHT22;9350;53.176;8.194;2022-07-29T05:58:43;16.10;99.90
18444;DHT22;9350;53.176;8.194;2022-07-29T06:01:09;16.10;99.90
18444;DHT22;9350;53.176;8.194;2022-07-29T06:03:36;16.20;99.90
18444;DHT22;9350;53.176;8.194;2022-07-29T06:06:04;16.20;99.90
18444;DHT22;9350;53.176;8.194;2022-07-29T06:08:31;16.30;99.90
18444;DHT22;9350;53.176;8.194;2022-07-29T06:10:59;16.30;99.90
18444;DHT22;9350;53.176;8.194;2022-07-29T06:13:26;16.30;99.90
18444;DHT22;9350;53.176;8.194;2022-07-29T06:15:54;16.30;99.90
18444;DHT22;9350;53.176;8.194;2022-07-29T06:18:20;16.30;99.90
18444;DHT22;9350;53.176;8.194;2022-07-29T06:20:49;16.40;99.90
18444;DHT22;9350;53.176;8.194;2022-07-29T06:23:16;16.40;99.90
18444;DHT22;9350;53.176;8.194;2022-07-29T06:25:42;16.40;99.90
18444;DHT22;9350;53.176;8.194;2022-07-29T06:28:09;16.50;99.90
18444;DHT22;9350;53.176;8.194;2022-07-29T06:30:36;16.50;99.90
18444;DHT22;9350;53.176;8.194;2022-07-29T06:33:04;16.50;99.90
18444;DHT22;9350;53.176;8.194;2022-07-29T06:35:33;16.50;99.90
18444;DHT22;9350;53.176;8.194;2022-07-29T06:38:00;16.60;99.90
18444;DHT22;9350;53.176;8.194;2022-07-29T06:40:27;16.60;99.90
18444;DHT22;9350;53.176;8.194;2022-07-29T06:43:11;16.60;99.90
18444;DHT22;9350;53.176;8.194;2022-07-29T06:45:38;16.70;99.90
18444;DHT22;9350;53.176;8.194;2022-07-29T06:48:07;16.60;99.90
18444;DHT22;9350;53.176;8.194;2022-07-29T06:50:34;16.70;99.90
18444;DHT22;9350;53.176;8.194;2022-07-29T06:53:01;16.70;99.90
18444;DHT22;9350;53.176;8.194;2022-07-29T06:55:27;16.70;99.90
18444;DHT22;9350;53.176;8.194;2022-07-29T06:57:54;16.70;99.90
18444;DHT22;9350;53.176;8.194;2022-07-29T07:00:21;16.70;99.90
18444;DHT22;9350;53.176;8.194;2022-07-29T07:02:48;16.80;99.90
18444;DHT22;9350;53.176;8.194;2022-07-29T07:05:16;16.80;99.90
18444;DHT22;9350;53.176;8.194;2022-07-29T07:07:42;16.80;99.90
18444;DHT22;9350;53.176;8.194;2022-07-29T07:10:09;16.80;99.90
18444;DHT22;9350;53.176;8.194;2022-07-29T07:12:36;16.80;99.90
18444;DHT22;9350;53.176;8.194;2022-07-29T07:15:03;16.90;99.90
18444;DHT22;9350;53.176;8.194;2022-07-29T07:17:31;16.90;99.90
18444;DHT22;9350;53.176;8.194;2022-07-29T07:19:57;16.90;99.90
18444;DHT22;9350;53.176;8.194;2022-07-29T07:22:25;17.10;99.90
18444;DHT22;9350;53.176;8.194;2022-07-29T07:24:52;17.10;99.90
18444;DHT22;9350;53.176;8.194;2022-07-29T07:27:19;17.20;99.90
18444;DHT22;9350;53.176;8.194;2022-07-29T07:29:45;17.20;99.90
18444;DHT22;9350;53.176;8.194;2022-07-29T07:32:12;17.30;99.90
18444;DHT22;9350;53.176;8.194;2022-07-29T07:34:41;17.30;99.90
18444;DHT22;9350;53.176;8.194;2022-07-29T07:37:08;17.40;99.90
18444;DHT22;9350;53.176;8.194;2022-07-29T07:39:36;17.50;99.90
18444;DHT22;9350;53.176;8.194;2022-07-29T07:42:03;17.50;99.90
18444;DHT22;9350;53.176;8.194;2022-07-29T07:44:29;17.60;99.90
18444;DHT22;9350;53.176;8.194;2022-07-29T07:46:56;17.60;99.90
18444;DHT22;9350;53.176;8.194;2022-07-29T07:49:23;17.60;99.90
18444;DHT22;9350;53.176;8.194;2022-07-29T07:51:50;17.70;99.90
18444;DHT22;9350;53.176;8.194;2022-07-29T07:54:17;17.80;99.90
18444;DHT22;9350;53.176;8.194;2022-07-29T07:56:46;17.90;99.90
18444;DHT22;9350;53.176;8.194;2022-07-29T07:59:14;17.90;99.90
18444;DHT22;9350;53.176;8.194;2022-07-29T08:01:41;17.90;99.90
18444;DHT22;9350;53.176;8.194;2022-07-29T08:04:07;18.00;99.90
18444;DHT22;9350;53.176;8.194;2022-07-29T08:06:34;18.00;99.90
18444;DHT22;9350;53.176;8.194;2022-07-29T08:09:02;18.00;99.90
18444;DHT22;9350;53.176;8.194;2022-07-29T08:11:29;18.00;99.90
18444;DHT22;9350;53.176;8.194;2022-07-29T08:13:57;18.20;99.90
18444;DHT22;9350;53.176;8.194;2022-07-29T08:16:26;18.20;99.90
18444;DHT22;9350;53.176;8.194;2022-07-29T08:18:53;18.30;99.90
18444;DHT22;9350;53.176;8.194;2022-07-29T08:21:23;18.30;99.90
18444;DHT22;9350;53.176;8.194;2022-07-29T08:23:50;18.40;99.90
18444;DHT22;9350;53.176;8.194;2022-07-29T08:26:19;18.50;99.90
18444;DHT22;9350;53.176;8.194;2022-07-29T08:28:47;18.50;99.90
18444;DHT22;9350;53.176;8.194;2022-07-29T08:31:17;18.50;99.90
18444;DHT22;9350;53.176;8.194;2022-07-29T08:33:44;18.60;99.90
18444;DHT22;9350;53.176;8.194;2022-07-29T08:36:11;18.70;99.90
18444;DHT22;9350;53.176;8.194;2022-07-29T08:38:38;18.70;99.90
18444;DHT22;9350;53.176;8.194;2022-07-29T08:41:05;18.80;99.90
18444;DHT22;9350;53.176;8.194;2022-07-29T08:43:32;18.80;99.90
18444;DHT22;9350;53.176;8.194;2022-07-29T08:46:02;18.90;99.90
18444;DHT22;9350;53.176;8.194;2022-07-29T08:48:31;18.90;99.90
18444;DHT22;9350;53.176;8.194;2022-07-29T08:50:58;19.00;99.90
18444;DHT22;9350;53.176;8.194;2022-07-29T08:53:26;19.10;99.90
18444;DHT22;9350;53.176;8.194;2022-07-29T08:55:55;19.10;99.90
18444;DHT22;9350;53.176;8.194;2022-07-29T08:58:22;19.20;99.90
18444;DHT22;9350;53.176;8.194;2022-07-29T09:00:52;19.30;99.90
18444;DHT22;9350;53.176;8.194;2022-07-29T09:03:20;19.30;99.90
18444;DHT22;9350;53.176;8.194;2022-07-29T09:05:50;19.20;99.90
18444;DHT22;9350;53.176;8.194;2022-07-29T09:08:17;19.20;99.90
18444;DHT22;9350;53.176;8.194;2022-07-29T09:10:46;19.30;99.90
18444;DHT22;9350;53.176;8.194;2022-07-29T09:13:13;19.20;99.90
18444;DHT22;9350;53.176;8.194;2022-07-29T09:15:40;19.20;99.90
18444;DHT22;9350;53.176;8.194;2022-07-29T09:18:07;19.20;99.90
18444;DHT22;9350;53.176;8.194;2022-07-29T09:20:33;19.20;99.90
18444;DHT22;9350;53.176;8.194;2022-07-29T09:23:15;19.10;99.90
18444;DHT22;9350;53.176;8.194;2022-07-29T09:25:42;19.10;99.90
18444;DHT22;9350;53.176;8.194;2022-07-29T09:28:10;19.10;99.90
18444;DHT22;9350;53.176;8.194;2022-07-29T09:30:49;19.10;99.90
18444;DHT22;9350;53.176;8.194;2022-07-29T09:33:16;19.10;99.90
18444;DHT22;9350;53.176;8.194;2022-07-29T09:35:43;19.20;99.90
18444;DHT22;9350;53.176;8.194;2022-07-29T09:38:11;19.20;99.90
18444;DHT22;9350;53.176;8.194;2022-07-29T09:40:39;19.20;99.90
18444;DHT22;9350;53.176;8.194;2022-07-29T09:43:11;19.30;99.90
18444;DHT22;9350;53.176;8.194;2022-07-29T09:45:38;19.40;99.90
18444;DHT22;9350;53.176;8.194;2022-07-29T09:48:14;19.40;99.90
18444;DHT22;9350;53.176;8.194;2022-07-29T09:50:42;19.40;99.90
18444;DHT22;9350;53.176;8.194;2022-07-29T09:53:10;19.50;99.90
18444;DHT22;9350;53.176;8.194;2022-07-29T09:55:48;19.50;99.90
18444;DHT22;9350;53.176;8.194;2022-07-29T09:58:16;19.50;99.90
18444;DHT22;9350;53.176;8.194;2022-07-29T10:00:44;19.60;99.90
18444;DHT22;9350;53.176;8.194;2022-07-29T10:03:11;19.70;99.90
18444;DHT22;9350;53.176;8.194;2022-07-29T10:05:38;19.70;99.90
18444;DHT22;9350;53.176;8.194;2022-07-29T10:08:08;19.70;99.90
18444;DHT22;9350;53.176;8.194;2022-07-29T10:10:37;19.70;99.90
18444;DHT22;9350;53.176;8.194;2022-07-29T10:13:07;19.80;99.90
18444;DHT22;9350;53.176;8.194;2022-07-29T10:15:37;19.80;99.90
18444;DHT22;9350;53.176;8.194;2022-07-29T10:18:07;19.90;99.90
18444;DHT22;9350;53.176;8.194;2022-07-29T10:20:34;20.00;99.90
18444;DHT22;9350;53.176;8.194;2022-07-29T10:23:01;20.10;99.90
18444;DHT22;9350;53.176;8.194;2022-07-29T10:25:29;20.10;99.90
18444;DHT22;9350;53.176;8.194;2022-07-29T10:27:56;20.20;99.90
18444;DHT22;9350;53.176;8.194;2022-07-29T10:30:25;20.40;99.90
18444;DHT22;9350;53.176;8.194;2022-07-29T10:33:16;20.50;99.90
18444;DHT22;9350;53.176;8.194;2022-07-29T10:35:53;20.60;99.90
18444;DHT22;9350;53.176;8.194;2022-07-29T10:38:30;20.60;99.90
18444;DHT22;9350;53.176;8.194;2022-07-29T10:41:11;20.60;99.90
18444;DHT22;9350;53.176;8.194;2022-07-29T10:43:55;20.60;99.90
18444;DHT22;9350;53.176;8.194;2022-07-29T10:46:24;20.60;99.90
18444;DHT22;9350;53.176;8.194;2022-07-29T10:49:08;20.60;99.90
18444;DHT22;9350;53.176;8.194;2022-07-29T10:51:54;20.60;99.90
18444;DHT22;9350;53.176;8.194;2022-07-29T10:54:47;20.70;99.90
18444;DHT22;9350;53.176;8.194;2022-07-29T10:57:21;20.70;99.90
18444;DHT22;9350;53.176;8.194;2022-07-29T10:59:52;20.70;99.90
18444;DHT22;9350;53.176;8.194;2022-07-29T11:02:44;20.80;99.90
18444;DHT22;9350;53.176;8.194;2022-07-29T11:05:15;20.80;99.90
18444;DHT22;9350;53.176;8.194;2022-07-29T11:08:16;20.80;99.90
18444;DHT22;9350;53.176;8.194;2022-07-29T11:10:45;20.80;99.90
18444;DHT22;9350;53.176;8.194;2022-07-29T11:13:12;20.90;99.90
18444;DHT22;9350;53.176;8.194;2022-07-29T11:15:55;21.00;99.90
18444;DHT22;9350;53.176;8.194;2022-07-29T11:18:24;21.00;99.90
18444;DHT22;9350;53.176;8.194;2022-07-29T11:20:51;21.00;99.90
18444;DHT22;9350;53.176;8.194;2022-07-29T11:23:21;21.10;99.90
18444;DHT22;9350;53.176;8.194;2022-07-29T11:26:12;21.10;99.90
18444;DHT22;9350;53.176;8.194;2022-07-29T11:28:51;21.20;99.90
18444;DHT22;9350;53.176;8.194;2022-07-29T11:31:30;21.30;99.90
18444;DHT22;9350;53.176;8.194;2022-07-29T11:34:19;21.50;99.90
18444;DHT22;9350;53.176;8.194;2022-07-29T11:37:18;21.60;99.90
18444;DHT22;9350;53.176;8.194;2022-07-29T11:39:46;21.60;99.90
18444;DHT22;9350;53.176;8.194;2022-07-29T11:42:37;21.60;99.90
18444;DHT22;9350;53.176;8.194;2022-07-29T11:45:06;21.70;99.90
18444;DHT22;9350;53.176;8.194;2022-07-29T11:47:34;21.70;99.90
18444;DHT22;9350;53.176;8.194;2022-07-29T11:50:04;21.70;99.90
18444;DHT22;9350;53.176;8.194;2022-07-29T11:52:33;21.70;99.90
18444;DHT22;9350;53.176;8.194;2022-07-29T11:55:04;21.70;99.90
18444;DHT22;9350;53.176;8.194;2022-07-29T11:57:34;21.70;99.90
18444;DHT22;9350;53.176;8.194;2022-07-29T12:00:01;21.60;99.90
18444;DHT22;9350;53.176;8.194;2022-07-29T12:02:38;21.60;99.90
18444;DHT22;9350;53.176;8.194;2022-07-29T12:05:09;21.60;99.90
18444;DHT22;9350;53.176;8.194;2022-07-29T12:07:37;21.60;99.90
18444;DHT22;9350;53.176;8.194;2022-07-29T12:10:05;21.50;99.90
18444;DHT22;9350;53.176;8.194;2022-07-29T12:12:32;21.60;99.90
18444;DHT22;9350;53.176;8.194;2022-07-29T12:15:11;21.50;99.90
18444;DHT22;9350;53.176;8.194;2022-07-29T12:17:38;21.50;99.90
18444;DHT22;9350;53.176;8.194;2022-07-29T12:20:08;21.50;99.90
18444;DHT22;9350;53.176;8.194;2022-07-29T12:22:36;21.50;99.90
18444;DHT22;9350;53.176;8.194;2022-07-29T12:25:06;21.50;99.90
18444;DHT22;9350;53.176;8.194;2022-07-29T12:27:34;21.40;99.90
18444;DHT22;9350;53.176;8.194;2022-07-29T12:30:03;21.50;99.90
18444;DHT22;9350;53.176;8.194;2022-07-29T12:32:32;21.50;99.90
18444;DHT22;9350;53.176;8.194;2022-07-29T12:35:02;21.50;99.90
18444;DHT22;9350;53.176;8.194;2022-07-29T12:37:30;21.50;99.90
18444;DHT22;9350;53.176;8.194;2022-07-29T12:39:57;21.50;99.90
18444;DHT22;9350;53.176;8.194;2022-07-29T12:42:24;21.50;99.90
18444;DHT22;9350;53.176;8.194;2022-07-29T12:44:51;21.50;99.90
18444;DHT22;9350;53.176;8.194;2022-07-29T12:47:18;21.50;99.90
18444;DHT22;9350;53.176;8.194;2022-07-29T12:49:46;21.50;99.90
18444;DHT22;9350;53.176;8.194;2022-07-29T12:52:30;21.50;99.90
18444;DHT22;9350;53.176;8.194;2022-07-29T12:54:57;21.50;99.90
18444;DHT22;9350;53.176;8.194;2022-07-29T12:57:24;21.50;99.90
18444;DHT22;9350;53.176;8.194;2022-07-29T13:00:05;21.50;99.90
18444;DHT22;9350;53.176;8.194;2022-07-29T13:02:33;21.50;99.90
18444;DHT22;9350;53.176;8.194;2022-07-29T13:05:01;21.50;99.90
18444;DHT22;9350;53.176;8.194;2022-07-29T13:07:32;21.50;99.90
18444;DHT22;9350;53.176;8.194;2022-07-29T13:10:12;21.50;99.90
18444;DHT22;9350;53.176;8.194;2022-07-29T13:15:21;21.50;99.90
18444;DHT22;9350;53.176;8.194;2022-07-29T13:17:48;21.60;99.90
18444;DHT22;9350;53.176;8.194;2022-07-29T13:20:14;21.60;99.90
18444;DHT22;9350;53.176;8.194;2022-07-29T13:22:43;21.60;99.90
18444;DHT22;9350;53.176;8.194;2022-07-29T13:25:13;21.60;99.90
18444;DHT22;9350;53.176;8.194;2022-07-29T13:27:40;21.60;99.90
18444;DHT22;9350;53.176;8.194;2022-07-29T13:30:08;21.60;99.90
18444;DHT22;9350;53.176;8.194;2022-07-29T13:32:36;21.60;99.90
18444;DHT22;9350;53.176;8.194;2022-07-29T13:35:04;21.70;99.90
18444;DHT22;9350;53.176;8.194;2022-07-29T13:37:32;21.70;99.90
18444;DHT22;9350;53.176;8.194;2022-07-29T13:40:02;21.80;99.90
18444;DHT22;9350;53.176;8.194;2022-07-29T13:42:29;21.80;99.90
18444;DHT22;9350;53.176;8.194;2022-07-29T13:44:56;21.80;99.90
18444;DHT22;9350;53.176;8.194;2022-07-29T13:47:24;21.80;99.90
18444;DHT22;9350;53.176;8.194;2022-07-29T13:49:51;21.80;99.90
18444;DHT22;9350;53.176;8.194;2022-07-29T13:52:19;21.90;99.90
18444;DHT22;9350;53.176;8.194;2022-07-29T13:54:46;21.80;99.90
18444;DHT22;9350;53.176;8.194;2022-07-29T13:57:14;21.80;99.90
18444;DHT22;9350;53.176;8.194;2022-07-29T13:59:41;21.80;99.90
18444;DHT22;9350;53.176;8.194;2022-07-29T14:02:09;21.80;99.90
18444;DHT22;9350;53.176;8.194;2022-07-29T14:04:36;21.80;99.90
18444;DHT22;9350;53.176;8.194;2022-07-29T14:07:03;21.80;99.90
18444;DHT22;9350;53.176;8.194;2022-07-29T14:09:30;21.80;99.90
18444;DHT22;9350;53.176;8.194;2022-07-29T14:11:57;21.80;99.90
18444;DHT22;9350;53.176;8.194;2022-07-29T14:14:25;21.70;99.90
18444;DHT22;9350;53.176;8.194;2022-07-29T14:16:51;21.70;99.90
18444;DHT22;9350;53.176;8.194;2022-07-29T14:19:18;21.70;99.90
18444;DHT22;9350;53.176;8.194;2022-07-29T14:21:45;21.70;99.90
18444;DHT22;9350;53.176;8.194;2022-07-29T14:24:12;21.70;99.90
18444;DHT22;9350;53.176;8.194;2022-07-29T14:26:38;21.70;99.90
18444;DHT22;9350;53.176;8.194;2022-07-29T14:29:05;21.70;99.90
18444;DHT22;9350;53.176;8.194;2022-07-29T14:31:33;21.70;99.90
18444;DHT22;9350;53.176;8.194;2022-07-29T14:34:00;21.70;99.90
18444;DHT22;9350;53.176;8.194;2022-07-29T14:36:27;21.70;99.90
18444;DHT22;9350;53.176;8.194;2022-07-29T14:38:53;21.70;99.90
18444;DHT22;9350;53.176;8.194;2022-07-29T14:41:20;21.70;99.90
18444;DHT22;9350;53.176;8.194;2022-07-29T14:43:47;21.70;99.90
18444;DHT22;9350;53.176;8.194;2022-07-29T14:46:14;21.70;99.90
18444;DHT22;9350;53.176;8.194;2022-07-29T14:48:42;21.60;99.90
18444;DHT22;9350;53.176;8.194;2022-07-29T14:51:09;21.60;99.90
18444;DHT22;9350;53.176;8.194;2022-07-29T14:53:35;21.50;99.90
18444;DHT22;9350;53.176;8.194;2022-07-29T14:56:02;21.50;99.90
18444;DHT22;9350;53.176;8.194;2022-07-29T14:58:29;21.50;99.90
18444;DHT22;9350;53.176;8.194;2022-07-29T15:00:56;21.50;99.90
18444;DHT22;9350;53.176;8.194;2022-07-29T15:03:23;21.50;99.90
18444;DHT22;9350;53.176;8.194;2022-07-29T15:05:51;21.50;99.90
18444;DHT22;9350;53.176;8.194;2022-07-29T15:08:18;21.50;99.90
18444;DHT22;9350;53.176;8.194;2022-07-29T15:10:45;21.40;99.90
18444;DHT22;9350;53.176;8.194;2022-07-29T15:13:12;21.40;99.90
18444;DHT22;9350;53.176;8.194;2022-07-29T15:15:39;21.40;99.90
18444;DHT22;9350;53.176;8.194;2022-07-29T15:18:06;21.30;99.90
18444;DHT22;9350;53.176;8.194;2022-07-29T15:20:34;21.30;99.90
18444;DHT22;9350;53.176;8.194;2022-07-29T15:23:02;21.30;99.90
18444;DHT22;9350;53.176;8.194;2022-07-29T15:25:29;21.20;99.90
18444;DHT22;9350;53.176;8.194;2022-07-29T15:27:56;21.10;99.90
18444;DHT22;9350;53.176;8.194;2022-07-29T15:30:25;21.10;99.90
18444;DHT22;9350;53.176;8.194;2022-07-29T15:32:52;21.00;99.90
18444;DHT22;9350;53.176;8.194;2022-07-29T15:35:18;20.90;99.90
18444;DHT22;9350;53.176;8.194;2022-07-29T15:37:45;20.80;99.90
18444;DHT22;9350;53.176;8.194;2022-07-29T15:40:13;20.70;99.90
18444;DHT22;9350;53.176;8.194;2022-07-29T15:42:40;20.60;99.90
18444;DHT22;9350;53.176;8.194;2022-07-29T15:45:08;20.60;99.90
18444;DHT22;9350;53.176;8.194;2022-07-29T15:47:35;20.60;99.90
18444;DHT22;9350;53.176;8.194;2022-07-29T15:50:02;20.60;99.90
18444;DHT22;9350;53.176;8.194;2022-07-29T15:52:29;20.50;99.90
18444;DHT22;9350;53.176;8.194;2022-07-29T15:54:56;20.60;99.90
18444;DHT22;9350;53.176;8.194;2022-07-29T15:57:24;20.60;99.90
18444;DHT22;9350;53.176;8.194;2022-07-29T15:59:51;20.50;99.90
18444;DHT22;9350;53.176;8.194;2022-07-29T16:02:18;20.50;99.90